createdAt,value
2022-10-23T00:03:31.829Z,22.70
2022-10-23T00:08:35.555Z,22.70
2022-10-23T00:13:39.304Z,22.70
2022-10-23T00:18:45.765Z,22.70
2022-10-23T00:23:49.500Z,22.70
2022-10-23T00:28:55.558Z,22.70
2022-10-23T00:34:00.677Z,22.70
2022-10-23T00:39:05.059Z,22.70
2022-10-23T00:44:12.814Z,22.70
2022-10-23T00:49:18.350Z,22.70
2022-10-23T00:54:27.314Z,22.70
2022-10-23T00:59:32.106Z,22.70
2022-10-23T01:04:37.797Z,22.70
2022-10-23T01:09:52.507Z,22.70
2022-10-23T01:15:07.736Z,22.70
2022-10-23T01:20:37.669Z,22.70
2022-10-23T01:26:10.707Z,22.70
2022-10-23T01:31:24.318Z,22.70
2022-10-23T01:36:31.549Z,22.70
2022-10-23T01:41:44.594Z,22.70
2022-10-23T01:46:54.782Z,22.70
2022-10-23T01:52:04.557Z,22.70
2022-10-23T01:57:11.646Z,22.70
2022-10-23T02:02:19.243Z,22.70
2022-10-23T02:07:23.227Z,22.70
2022-10-23T02:12:35.381Z,22.60
2022-10-23T02:17:52.885Z,22.60
2022-10-23T02:23:02.346Z,22.60
2022-10-23T02:28:12.226Z,22.60
2022-10-23T02:33:23.022Z,22.60
2022-10-23T02:38:37.593Z,22.60
2022-10-23T02:43:52.215Z,22.60
2022-10-23T02:49:09.751Z,22.60
2022-10-23T02:54:25.926Z,22.60
2022-10-23T02:59:40.221Z,22.60
2022-10-23T03:04:46.740Z,22.60
2022-10-23T03:09:50.497Z,22.60
2022-10-23T03:14:54.468Z,22.60
2022-10-23T03:19:59.645Z,22.60
2022-10-23T03:25:03.388Z,22.60
2022-10-23T03:30:11.316Z,22.60
2022-10-23T03:35:18.398Z,22.60
2022-10-23T03:40:22.367Z,22.60
2022-10-23T03:45:27.015Z,22.60
2022-10-23T03:50:31.866Z,22.60
2022-10-23T03:55:35.378Z,22.60
2022-10-23T04:00:38.886Z,22.60
2022-10-23T04:05:45.868Z,22.60
2022-10-23T04:10:49.500Z,22.60
2022-10-23T04:15:56.684Z,22.50
2022-10-23T04:21:01.863Z,22.60
2022-10-23T04:26:05.518Z,22.60
2022-10-23T04:31:09.019Z,22.60
2022-10-23T04:36:18.423Z,22.60
2022-10-23T04:41:21.971Z,22.60
2022-10-23T04:46:25.653Z,22.60
2022-10-23T04:51:30.686Z,22.60
2022-10-23T04:56:50.232Z,22.60
2022-10-23T05:01:56.566Z,22.60
2022-10-23T05:07:02.297Z,22.60
2022-10-23T05:12:29.012Z,22.60
2022-10-23T05:17:37.684Z,22.60
2022-10-23T05:22:44.130Z,22.60
2022-10-23T05:27:48.153Z,22.60
2022-10-23T05:32:53.043Z,22.60
2022-10-23T05:38:01.595Z,22.60
2022-10-23T05:43:05.604Z,22.60
2022-10-23T05:48:35.375Z,22.60
2022-10-23T05:53:46.288Z,22.60
2022-10-23T05:59:03.476Z,22.60
2022-10-23T06:04:22.503Z,22.50
2022-10-23T06:09:47.771Z,22.60
2022-10-23T06:14:52.075Z,22.50
2022-10-23T06:20:00.863Z,22.60
2022-10-23T06:25:08.139Z,22.60
2022-10-23T06:30:14.016Z,22.60
2022-10-23T06:35:18.060Z,22.70
2022-10-23T06:40:23.456Z,22.70
2022-10-23T06:45:42.079Z,22.70
2022-10-23T06:50:51.409Z,22.70
2022-10-23T06:56:03.477Z,22.70
2022-10-23T07:01:11.910Z,22.80
2022-10-23T07:06:17.192Z,22.80
2022-10-23T07:11:23.350Z,22.80
2022-10-23T07:16:28.203Z,22.80
2022-10-23T07:21:35.768Z,22.80
2022-10-23T07:27:01.067Z,22.80
2022-10-23T07:32:09.232Z,22.80
2022-10-23T07:37:31.815Z,22.80
2022-10-23T07:42:39.446Z,22.70
2022-10-23T07:47:44.657Z,22.60
2022-10-23T07:52:50.026Z,22.60
2022-10-23T07:57:55.678Z,22.60
2022-10-23T08:03:26.327Z,22.50
2022-10-23T08:08:30.486Z,22.60
2022-10-23T08:13:40.449Z,22.50
2022-10-23T08:18:45.416Z,22.50
2022-10-23T08:23:49.198Z,22.40
2022-10-23T08:28:54.646Z,22.40
2022-10-23T08:33:59.175Z,22.40
2022-10-23T08:39:03.821Z,22.30
2022-10-23T08:44:22.997Z,22.30
2022-10-23T08:49:42.246Z,22.40
2022-10-23T08:55:03.127Z,22.30
2022-10-23T09:00:14.085Z,22.30
2022-10-23T09:05:23.193Z,22.30
2022-10-23T09:11:05.989Z,22.30
2022-10-23T09:16:25.713Z,22.20
2022-10-23T09:21:30.713Z,22.20
2022-10-23T09:26:34.221Z,22.20
2022-10-23T09:31:50.841Z,22.30
2022-10-23T09:36:58.230Z,22.30
2022-10-23T09:42:24.233Z,22.30
2022-10-23T09:47:29.220Z,22.30
2022-10-23T09:52:38.079Z,22.40
2022-10-23T09:57:45.334Z,22.30
2022-10-23T10:03:02.453Z,22.40
2022-10-23T10:08:22.978Z,22.30
2022-10-23T10:14:02.381Z,22.30
2022-10-23T10:19:26.573Z,22.30
2022-10-23T10:24:39.879Z,22.30
2022-10-23T10:30:02.826Z,22.30
2022-10-23T10:35:37.253Z,22.20
2022-10-23T10:40:49.010Z,22.20
2022-10-23T10:46:02.397Z,22.20
2022-10-23T10:51:11.603Z,22.20
2022-10-23T10:56:24.361Z,22.20
2022-10-23T11:01:36.099Z,22.20
2022-10-23T11:06:45.724Z,22.20
2022-10-23T11:11:50.241Z,22.20
2022-10-23T11:17:05.777Z,22.20
2022-10-23T11:22:22.259Z,22.20
2022-10-23T11:27:54.206Z,22.20
2022-10-23T11:33:57.975Z,22.20
2022-10-23T11:39:22.088Z,22.20
2022-10-23T11:44:43.901Z,22.20
2022-10-23T11:49:50.125Z,22.20
2022-10-23T11:55:04.999Z,22.20
2022-10-23T12:00:24.434Z,22.20
2022-10-23T12:05:34.875Z,22.20
2022-10-23T12:10:50.624Z,22.20
2022-10-23T12:15:58.578Z,22.20
2022-10-23T12:21:05.683Z,22.20
2022-10-23T12:26:32.168Z,22.20
2022-10-23T12:31:50.957Z,22.20
2022-10-23T12:37:28.511Z,22.20
2022-10-23T12:42:33.465Z,22.20
2022-10-23T12:52:55.483Z,22.20
2022-10-23T12:58:00.820Z,22.20
2022-10-23T13:03:05.718Z,22.20
2022-10-23T13:08:12.606Z,22.20
2022-10-23T13:13:37.733Z,22.20
2022-10-23T13:18:43.411Z,22.20
2022-10-23T13:23:47.531Z,22.20
2022-10-23T13:28:53.354Z,22.20
2022-10-23T13:34:25.505Z,22.20
2022-10-23T13:39:33.497Z,22.20
2022-10-23T13:44:38.590Z,22.20
2022-10-23T13:49:42.226Z,22.20
2022-10-23T13:54:45.795Z,22.20
2022-10-23T13:59:50.935Z,22.20
2022-10-23T14:04:54.858Z,22.20
2022-10-23T14:09:58.237Z,22.20
2022-10-23T14:15:03.128Z,22.20
2022-10-23T14:20:09.349Z,22.20
2022-10-23T14:25:12.913Z,22.20
2022-10-23T14:30:17.997Z,22.20
2022-10-23T14:35:21.589Z,22.20
2022-10-23T14:40:25.449Z,22.20
2022-10-23T14:45:30.545Z,22.20
2022-10-23T14:50:37.741Z,22.20
2022-10-23T14:55:41.499Z,22.20
2022-10-23T15:00:46.427Z,22.10
2022-10-23T15:05:49.925Z,22.10
2022-10-23T15:10:53.603Z,22.10
2022-10-23T15:16:06.824Z,22.20
2022-10-23T15:21:11.582Z,22.20
2022-10-23T15:26:22.871Z,22.30
2022-10-23T15:31:45.870Z,22.30
2022-10-23T15:36:50.968Z,22.40
2022-10-23T15:41:57.471Z,22.30
2022-10-23T15:47:02.782Z,22.30
2022-10-23T15:57:17.230Z,22.30
2022-10-23T16:02:23.222Z,22.30
2022-10-23T16:07:27.160Z,22.30
2022-10-23T16:12:30.832Z,22.30
2022-10-23T16:17:36.020Z,22.30
2022-10-23T16:22:41.431Z,22.30
2022-10-23T16:27:47.860Z,22.40
2022-10-23T16:32:54.913Z,22.40
2022-10-23T16:37:58.511Z,22.30
2022-10-23T16:43:02.201Z,22.30
2022-10-23T16:48:17.607Z,22.30
2022-10-23T16:53:21.453Z,22.30
2022-10-23T16:58:25.207Z,22.30
2022-10-23T17:03:31.387Z,22.20
2022-10-23T17:08:35.280Z,22.20
2022-10-23T17:13:43.118Z,22.20
2022-10-23T17:18:48.681Z,22.30
2022-10-23T17:23:52.559Z,22.30
2022-10-23T17:28:57.486Z,22.20
2022-10-23T17:34:07.651Z,22.20
2022-10-23T17:39:14.072Z,22.20
2022-10-23T17:44:18.191Z,22.20
2022-10-23T17:49:24.154Z,22.20
2022-10-23T17:54:28.842Z,22.20
2022-10-23T17:59:32.687Z,22.20
2022-10-23T18:04:37.675Z,22.20
2022-10-23T18:09:41.119Z,22.20
2022-10-23T18:14:44.587Z,22.20
2022-10-23T18:19:51.852Z,22.30
2022-10-23T18:24:55.636Z,22.40
2022-10-23T18:29:59.213Z,22.50
2022-10-23T18:35:05.401Z,22.60
2022-10-23T18:40:10.553Z,22.60
2022-10-23T18:45:14.424Z,22.70
2022-10-23T18:50:19.960Z,22.70
2022-10-23T18:55:23.501Z,22.70
2022-10-23T19:00:27.168Z,22.70
2022-10-23T19:05:32.272Z,22.70
2022-10-23T19:10:36.467Z,22.70
2022-10-23T19:15:40.447Z,22.70
2022-10-23T19:20:45.850Z,22.60
2022-10-23T19:25:49.498Z,22.60
2022-10-23T19:30:53.094Z,22.60
2022-10-23T19:36:00.247Z,22.60
2022-10-23T19:41:06.093Z,22.60
2022-10-23T19:46:12.168Z,22.60
2022-10-23T19:51:17.315Z,22.50
2022-10-23T19:56:20.872Z,22.60
2022-10-23T20:01:27.324Z,22.60
2022-10-23T20:06:35.912Z,22.60
2022-10-23T20:11:41.733Z,22.50
2022-10-23T20:16:52.239Z,22.50
2022-10-23T20:22:00.819Z,22.50
2022-10-23T20:27:04.354Z,22.50
2022-10-23T20:32:07.978Z,22.50
2022-10-23T20:37:12.937Z,22.50
2022-10-23T20:42:16.479Z,22.50
2022-10-23T20:47:19.964Z,22.50
2022-10-23T20:52:24.846Z,22.50
2022-10-23T20:57:28.307Z,22.50
2022-10-23T21:02:32.729Z,22.40
2022-10-23T21:07:37.788Z,22.50
2022-10-23T21:12:41.336Z,22.40
2022-10-23T21:17:46.385Z,22.50
2022-10-23T21:22:55.438Z,22.50
2022-10-23T21:27:58.993Z,22.60
2022-10-23T21:33:02.662Z,22.60
2022-10-23T21:38:07.678Z,22.60
2022-10-23T21:43:11.351Z,22.70
2022-10-23T21:48:14.870Z,22.70
2022-10-23T21:53:19.725Z,22.70
2022-10-23T21:58:23.589Z,22.70
2022-10-23T22:03:27.083Z,22.70
2022-10-23T22:08:31.950Z,22.70
2022-10-23T22:13:35.421Z,22.70
2022-10-23T22:18:39.499Z,22.70
2022-10-23T22:23:45.238Z,22.70
2022-10-23T22:28:48.954Z,22.70
2022-10-23T22:33:53.721Z,22.70
2022-10-23T22:38:58.982Z,22.70
2022-10-23T22:44:02.538Z,22.70
2022-10-23T22:54:15.989Z,22.70
2022-10-23T22:59:19.498Z,22.70
2022-10-23T23:04:39.156Z,22.70
2022-10-23T23:09:46.249Z,22.70
2022-10-23T23:14:49.894Z,22.70
2022-10-23T23:19:53.441Z,22.70
2022-10-23T23:24:58.257Z,22.70
2022-10-23T23:30:01.738Z,22.70
2022-10-23T23:35:05.954Z,22.70
2022-10-23T23:40:13.706Z,22.70
2022-10-23T23:45:17.457Z,22.70
2022-10-23T23:50:21.795Z,22.70
2022-10-23T23:55:26.639Z,22.70
